Terminal Aerodrome Forecast
Issued by NWS

Home | Current Version | Previous Version | Text Only | Print | Product List | Glossary On
Versions: 1 2 3 4 5 6 7 8 9 10 11 12 13 14 15
681
FTUS44 KEPZ 280538
TAFDMN
TAF
KDMN 280538Z 2806/2906 30010KT P6SM FEW250
     FM281300 02015G25KT P6SM FEW060 SCT200
     FM281600 10012G18KT P6SM SCT060 SCT200
     FM290400 14008KT P6SM BKN060 BKN100=

USA.gov is the U.S. government's official web portal to all federal, state and local government web resources and services.